Time;durP1;ratioP1;P1;durP2;ratioP2;P2;SDS_P1;SDS_P2;PMS_P1;PMS_P2;Temp;Humidity;BMP_temperature;BMP_pressure;BME280_temperature;BME280_humidity;BME280_pressure;Samples;Min_cycle;Max_cycle;Signal;HPM_P1;HPM_P2
2023/09/29 00:01:38;;;;;;;13.93;4.22;;;;;;;16.13;61.08;94412.84;5148499;27;20257;-84
2023/09/29 00:04:05;;;;;;;11.20;3.35;;;;;;;16.11;60.77;94415.09;5166960;27;20060;-85
2023/09/29 00:06:34;;;;;;;12.38;3.00;;;;;;;16.14;59.30;94416.31;5166929;27;20313;-85
2023/09/29 00:09:06;;;;;;;12.63;3.30;;;;;;;16.14;58.41;94411.75;5148405;27;20014;-85
2023/09/29 00:11:32;;;;;;;14.85;2.83;;;;;;;16.19;58.33;94408.84;5148248;27;20049;-86
2023/09/29 00:13:58;;;;;;;16.70;2.72;;;;;;;16.23;58.08;94407.03;5166988;27;20022;-86
2023/09/29 00:16:24;;;;;;;7.25;2.63;;;;;;;16.28;56.80;94408.72;5167048;27;20418;-87
2023/09/29 00:18:49;;;;;;;12.70;3.40;;;;;;;16.25;57.97;94412.88;5167098;27;20370;-86
2023/09/29 00:21:15;;;;;;;14.60;3.42;;;;;;;16.31;58.83;94416.13;5148998;27;20018;-87
2023/09/29 00:27:25;;;;;;;19.55;3.63;;;;;;;16.36;58.09;94412.44;5155356;27;20027;-88
2023/09/29 00:31:16;;;;;;;;;;;;;;;;;;;;;
2023/09/29 00:34:36;;;;;;;;;;;;;;;;;;;;;
2023/09/29 00:37:04;;;;;;;17.75;3.25;;;;;;;16.22;58.48;94410.06;5002602;28;20058;-87
2023/09/29 00:40:12;;;;;;;;;;;;;;;;;;;;;
2023/09/29 00:43:04;;;;;;;20.48;3.50;;;;;;;16.14;59.97;94405.56;4950859;28;20066;-88
2023/09/29 00:49:09;;;;;;;16.85;2.65;;;;;;;16.11;59.37;94412.41;4999072;28;20248;-87
2023/09/29 00:52:06;;;;;;;10.65;2.70;;;;;;;16.13;57.21;94404.78;4986755;28;20080;-87
2023/09/29 00:54:33;;;;;;;11.18;3.03;;;;;;;16.13;56.33;94404.00;5088461;28;20085;-87
2023/09/29 00:57:00;;;;;;;10.25;2.58;;;;;;;16.11;56.09;94401.66;5102857;28;20024;-87
2023/09/29 00:59:31;;;;;;;7.50;2.95;;;;;;;16.03;55.90;94406.00;5120876;27;20026;-87
2023/09/29 01:01:57;;;;;;;18.02;2.88;;;;;;;16.03;55.40;94397.94;5147802;27;20019;-87
2023/09/29 01:04:23;;;;;;;14.65;2.58;;;;;;;15.94;55.50;94404.56;5166086;27;20023;-87
2023/09/29 01:06:49;;;;;;;8.23;2.92;;;;;;;15.90;56.52;94398.28;5165880;27;20046;-87
2023/09/29 01:09:15;;;;;;;11.27;3.28;;;;;;;15.89;57.21;94400.16;5147548;27;20052;-87
2023/09/29 01:11:43;;;;;;;10.73;3.20;;;;;;;15.86;58.43;94400.84;5147327;27;20042;-87
2023/09/29 01:14:11;;;;;;;9.20;2.60;;;;;;;15.79;58.49;94396.00;5165839;27;20024;-86
2023/09/29 01:16:43;;;;;;;8.73;2.85;;;;;;;15.76;58.65;94391.28;5164816;27;20022;-86
2023/09/29 01:19:12;;;;;;;12.45;2.90;;;;;;;15.75;58.68;94392.44;5165707;27;20331;-86
2023/09/29 01:21:49;;;;;;;9.73;2.67;;;;;;;15.74;58.84;94403.50;5147417;27;20045;-86
2023/09/29 01:24:15;;;;;;;11.45;3.05;;;;;;;15.67;58.93;94404.00;5147259;27;20049;-87
2023/09/29 01:26:46;;;;;;;13.35;3.20;;;;;;;15.64;60.08;94399.28;5165571;27;20015;-87
2023/09/29 01:29:12;;;;;;;6.40;2.28;;;;;;;15.61;60.56;94398.06;5165575;27;20024;-87
2023/09/29 01:31:39;;;;;;;7.97;2.92;;;;;;;15.56;60.47;94392.09;5147258;27;20030;-88
2023/09/29 01:34:04;;;;;;;15.73;3.30;;;;;;;15.51;60.26;94403.03;5165586;27;20043;-87
2023/09/29 01:36:34;;;;;;;8.30;2.33;;;;;;;15.49;59.36;94399.91;5165753;27;20030;-88
2023/09/29 01:39:03;;;;;;;12.30;2.28;;;;;;;15.49;56.54;94407.97;5147360;27;20053;-88
2023/09/29 01:41:29;;;;;;;16.58;3.10;;;;;;;15.49;56.25;94405.28;5165596;27;20022;-87
2023/09/29 01:43:55;;;;;;;14.23;2.47;;;;;;;15.49;56.09;94406.09;5165323;27;20018;-86
2023/09/29 01:46:20;;;;;;;10.52;2.83;;;;;;;15.44;56.01;94411.66;5147203;27;20056;-87
2023/09/29 01:48:46;;;;;;;16.20;2.92;;;;;;;15.44;55.78;94411.66;5165283;27;20364;-87
2023/09/29 01:51:11;;;;;;;11.77;2.45;;;;;;;15.50;55.62;94404.94;5146981;27;20026;-87
2023/09/29 01:53:37;;;;;;;9.88;2.53;;;;;;;15.51;55.52;94411.09;5165338;27;20084;-87
2023/09/29 01:56:02;;;;;;;10.80;2.70;;;;;;;15.47;55.96;94405.63;5146309;27;20042;-86
2023/09/29 01:58:27;;;;;;;6.50;2.20;;;;;;;15.42;56.87;94406.59;5146536;27;20022;-86
2023/09/29 02:00:54;;;;;;;7.47;2.20;;;;;;;15.45;57.51;94402.47;5146671;27;20091;-86
2023/09/29 02:03:20;;;;;;;17.38;2.88;;;;;;;15.42;57.14;94405.81;5165128;27;20026;-87
2023/09/29 02:05:45;;;;;;;10.88;2.13;;;;;;;15.33;57.34;94400.53;5164788;27;20217;-86
2023/09/29 02:08:11;;;;;;;7.75;3.10;;;;;;;15.35;58.16;94409.03;5146239;27;20022;-86
2023/09/29 02:10:36;;;;;;;18.33;2.47;;;;;;;15.32;58.11;94404.31;5164752;27;20029;-87
2023/09/29 02:13:07;;;;;;;15.50;2.80;;;;;;;15.30;58.54;94406.53;5164852;27;20306;-86
2023/09/29 02:15:35;;;;;;;11.40;2.08;;;;;;;15.32;58.14;94403.53;5164730;27;20317;-86
2023/09/29 02:18:09;;;;;;;13.90;2.33;;;;;;;15.33;58.52;94403.22;5164536;27;20097;-86
2023/09/29 02:20:36;;;;;;;6.25;2.20;;;;;;;15.34;58.36;94402.09;5146361;27;20018;-86
2023/09/29 02:23:07;;;;;;;7.28;2.55;;;;;;;15.37;58.45;94403.34;5164623;27;20063;-86
2023/09/29 02:25:32;;;;;;;9.15;2.70;;;;;;;15.37;58.49;94406.03;5164805;27;20018;-86
2023/09/29 02:27:59;;;;;;;11.43;2.40;;;;;;;15.40;58.19;94400.00;5165763;27;20026;-86
2023/09/29 02:30:26;;;;;;;12.65;2.83;;;;;;;15.48;58.39;94403.72;5169049;27;20015;-86
2023/09/29 02:32:56;;;;;;;8.50;2.45;;;;;;;15.53;58.16;94401.63;5169060;27;20023;-86
2023/09/29 02:35:22;;;;;;;19.50;2.20;;;;;;;15.57;57.21;94399.84;5169030;27;20030;-86
2023/09/29 02:37:48;;;;;;;10.40;3.08;;;;;;;15.62;57.01;94406.91;5150303;27;20029;-86
2023/09/29 02:40:17;;;;;;;15.05;2.72;;;;;;;15.65;56.66;94400.84;5168690;27;20034;-86
2023/09/29 02:42:46;;;;;;;13.75;3.00;;;;;;;15.70;56.50;94414.09;5168551;27;20011;-86
2023/09/29 02:45:12;;;;;;;12.55;2.67;;;;;;;15.73;57.58;94416.13;5166910;27;20034;-86
2023/09/29 02:47:42;;;;;;;15.25;2.72;;;;;;;15.76;57.84;94417.38;5149033;27;20368;-86
2023/09/29 02:50:11;;;;;;;16.80;3.40;;;;;;;15.77;57.47;94413.56;5167178;27;20030;-86
2023/09/29 02:52:38;;;;;;;10.13;2.40;;;;;;;15.80;57.46;94413.69;5167966;27;20087;-86
2023/09/29 02:55:04;;;;;;;16.13;2.85;;;;;;;15.86;56.98;94416.19;5168375;27;20037;-86
2023/09/29 02:57:36;;;;;;;10.30;2.85;;;;;;;15.84;57.38;94427.25;5149633;27;20018;-86
2023/09/29 03:00:06;;;;;;;8.73;2.70;;;;;;;15.83;58.09;94428.38;5169044;27;20022;-88
2023/09/29 03:02:32;;;;;;;16.45;4.32;;;;;;;15.86;58.82;94429.63;5168793;27;20018;-88
2023/09/29 03:04:57;;;;;;;9.27;2.47;;;;;;;15.86;59.22;94433.09;5150233;27;20069;-87
2023/09/29 03:07:23;;;;;;;16.08;2.90;;;;;;;15.89;59.21;94426.25;5150170;27;20046;-87
2023/09/29 03:09:48;;;;;;;8.07;2.30;;;;;;;15.87;57.83;94418.53;5149977;27;20221;-87
2023/09/29 03:12:13;;;;;;;15.65;2.80;;;;;;;15.83;57.38;94420.31;5149798;27;20082;-87
2023/09/29 03:14:39;;;;;;;17.23;2.42;;;;;;;15.76;57.46;94423.53;5149758;27;20075;-86
2023/09/29 03:17:05;;;;;;;9.60;2.58;;;;;;;15.77;57.38;94425.13;5168347;27;20042;-87
2023/09/29 03:19:31;;;;;;;14.15;2.35;;;;;;;15.79;58.02;94430.97;5168477;27;20018;-87
2023/09/29 03:21:58;;;;;;;5.47;2.30;;;;;;;15.80;58.61;94424.44;5168373;27;20029;-87
2023/09/29 03:24:26;;;;;;;9.35;2.53;;;;;;;15.79;59.27;94417.53;5149971;27;20018;-87
2023/09/29 03:26:52;;;;;;;9.23;2.35;;;;;;;15.78;59.53;94424.00;5149846;27;20018;-87
2023/09/29 03:29:17;;;;;;;15.85;2.75;;;;;;;15.76;59.90;94415.47;5149716;27;20389;-88
2023/09/29 03:31:43;;;;;;;10.57;2.38;;;;;;;15.77;59.83;94424.31;5149675;27;20244;-88
2023/09/29 03:34:09;;;;;;;16.73;2.65;;;;;;;15.75;58.16;94423.88;5149844;27;20022;-88
2023/09/29 03:36:34;;;;;;;9.05;2.63;;;;;;;15.78;57.77;94425.91;5168244;27;20139;-88
2023/09/29 03:39:02;;;;;;;7.55;2.83;;;;;;;15.80;56.73;94420.97;5167371;27;20034;-86
2023/09/29 03:41:29;;;;;;;16.38;2.92;;;;;;;15.78;56.33;94426.69;5167351;27;20018;-85
2023/09/29 03:43:54;;;;;;;14.70;3.33;;;;;;;15.78;55.25;94425.91;5167930;27;20019;-85
2023/09/29 03:46:20;;;;;;;8.15;2.22;;;;;;;15.78;55.07;94421.31;5149277;27;20115;-86
2023/09/29 03:49:03;;;;;;;8.65;2.38;;;;;;;15.78;54.98;94424.00;5168109;27;20190;-89
2023/09/29 03:51:31;;;;;;;9.32;2.55;;;;;;;15.77;54.75;94430.50;5168087;27;20034;-88
2023/09/29 03:54:13;;;;;;;8.52;2.67;;;;;;;15.68;55.44;94432.44;5168294;27;20090;-87
2023/09/29 03:56:43;;;;;;;;;;;;;;;15.62;55.93;94433.78;5168109;27;20035;-86
2023/09/29 03:59:08;;;;;;;12.77;2.95;;;;;;;15.60;56.24;94422.56;5167712;27;19915;-85
2023/09/29 04:01:34;;;;;;;9.30;2.00;;;;;;;15.64;57.89;94426.94;5148696;27;20094;-85
2023/09/29 04:04:01;;;;;;;20.73;2.85;;;;;;;15.67;58.71;94425.47;5167219;27;20063;-85
2023/09/29 04:06:26;;;;;;;9.63;2.75;;;;;;;15.64;59.51;94428.84;5167013;27;20274;-85
2023/09/29 04:08:54;;;;;;;10.02;3.10;;;;;;;15.60;60.34;94422.56;5167316;27;20031;-85
2023/09/29 04:11:19;;;;;;;11.93;2.78;;;;;;;15.54;60.37;94431.94;5148678;27;20041;-86
2023/09/29 04:13:47;;;;;;;7.03;2.75;;;;;;;15.42;58.83;94425.41;5167323;27;20022;-86
2023/09/29 04:16:14;;;;;;;7.15;2.45;;;;;;;15.36;58.87;94420.56;5167107;27;20058;-86
2023/09/29 04:18:40;;;;;;;17.80;2.80;;;;;;;15.35;59.40;94422.47;5167322;27;20034;-86
2023/09/29 04:21:12;;;;;;;26.05;3.25;;;;;;;15.32;59.53;94425.81;5167224;27;20022;-86
2023/09/29 04:23:37;;;;;;;;;;;;;;;15.30;59.50;94424.56;5167449;27;20023;-87
2023/09/29 04:26:03;;;;;;;21.45;3.38;;;;;;;15.23;60.04;94422.41;5167047;27;19941;-87
2023/09/29 04:28:28;;;;;;;17.48;3.35;;;;;;;15.23;60.65;94433.16;5166983;27;20019;-87
2023/09/29 04:30:54;;;;;;;24.63;3.20;;;;;;;15.24;60.45;94426.66;5149062;27;20022;-87
2023/09/29 04:33:19;;;;;;;10.85;3.08;;;;;;;15.22;59.97;94424.31;5167084;27;20079;-87
2023/09/29 04:35:45;;;;;;;15.88;3.03;;;;;;;15.23;59.50;94427.78;5167100;27;20216;-90
2023/09/29 04:38:10;;;;;;;14.60;4.28;;;;;;;15.24;58.75;94423.97;5148826;27;20079;-89
2023/09/29 04:40:37;;;;;;;14.73;3.60;;;;;;;15.24;58.38;94429.34;5148846;27;20098;-88
2023/09/29 04:43:05;;;;;;;21.58;3.72;;;;;;;15.31;58.28;94432.31;5167165;27;20023;-89
2023/09/29 04:45:31;;;;;;;21.23;3.53;;;;;;;15.37;58.44;94438.25;5148545;27;20247;-90
2023/09/29 04:47:58;;;;;;;17.38;2.95;;;;;;;15.40;58.29;94433.00;5166871;27;20132;-88
2023/09/29 04:50:23;;;;;;;27.67;3.35;;;;;;;15.49;59.52;94443.69;5166968;27;20098;-88
2023/09/29 04:52:49;;;;;;;10.85;2.83;;;;;;;15.49;56.59;94440.19;5147172;27;20022;-87
2023/09/29 04:55:14;;;;;;;11.95;2.38;;;;;;;15.53;56.29;94441.09;5148548;27;20381;-89
2023/09/29 04:57:40;;;;;;;12.15;2.55;;;;;;;15.61;56.02;94434.88;5148360;27;20022;-88
2023/09/29 05:00:09;;;;;;;11.45;2.65;;;;;;;15.61;56.19;94445.63;5166650;27;20045;-88
2023/09/29 05:02:35;;;;;;;20.45;2.67;;;;;;;15.65;56.18;94443.84;5166871;27;20040;-88
2023/09/29 05:05:01;;;;;;;7.18;2.50;;;;;;;15.73;56.79;94443.00;5148284;27;20042;-88
2023/09/29 05:07:26;;;;;;;10.50;2.65;;;;;;;15.80;56.10;94440.56;5148136;27;20331;-88
2023/09/29 05:09:52;;;;;;;21.20;3.20;;;;;;;15.72;56.49;94449.50;5148064;27;20243;-88
2023/09/29 05:12:17;;;;;;;20.00;2.97;;;;;;;15.75;56.72;94454.25;5147925;27;20317;-89
2023/09/29 05:14:43;;;;;;;14.85;2.97;;;;;;;15.81;58.85;94455.59;5147947;27;20323;-88
2023/09/29 05:17:08;;;;;;;16.80;3.45;;;;;;;15.80;58.44;94459.38;5147927;27;20011;-88
2023/09/29 05:19:33;;;;;;;25.65;5.05;;;;;;;15.81;58.39;94463.66;5166271;27;20014;-87
2023/09/29 05:21:59;;;;;;;15.23;2.65;;;;;;;15.84;57.91;94463.00;5147725;27;20010;-88
2023/09/29 05:24:25;;;;;;;15.85;2.80;;;;;;;15.86;57.37;94453.81;5166540;27;20217;-88
2023/09/29 05:26:50;;;;;;;21.75;2.75;;;;;;;15.86;58.66;94453.81;5166318;27;20026;-88
2023/09/29 05:29:15;;;;;;;14.73;3.95;;;;;;;15.88;59.27;94459.66;5147697;27;20037;-88
2023/09/29 05:31:41;;;;;;;18.50;4.32;;;;;;;15.94;59.41;94463.69;5165853;27;20377;-88
2023/09/29 05:34:06;;;;;;;23.70;4.50;;;;;;;15.99;60.20;94456.19;5165977;27;20045;-87
2023/09/29 05:36:32;;;;;;;19.08;4.28;;;;;;;16.00;60.84;94465.84;5165885;27;20019;-88
2023/09/29 05:38:57;;;;;;;30.35;3.63;;;;;;;16.07;61.75;94454.53;5166032;27;20018;-88
2023/09/29 05:41:23;;;;;;;24.85;4.55;;;;;;;16.07;61.15;94459.13;5147526;27;20182;-87
2023/09/29 05:43:49;;;;;;;17.70;4.53;;;;;;;16.12;59.49;94461.59;5147371;27;20025;-87
2023/09/29 05:46:14;;;;;;;19.30;4.30;;;;;;;16.18;58.42;94455.69;5165719;27;20030;-88
2023/09/29 05:48:39;;;;;;;20.55;3.67;;;;;;;16.30;58.33;94465.66;5165653;27;20345;-87
2023/09/29 05:51:05;;;;;;;23.70;4.32;;;;;;;16.39;58.16;94460.97;5147377;27;20022;-88
2023/09/29 05:53:30;;;;;;;24.38;4.45;;;;;;;16.44;58.18;94466.16;5147008;27;20034;-87
2023/09/29 05:55:56;;;;;;;23.25;6.03;;;;;;;16.49;58.30;94467.81;5165435;27;20022;-88
2023/09/29 05:58:22;;;;;;;32.03;5.15;;;;;;;16.54;58.71;94464.91;5147302;27;20097;-87
2023/09/29 06:00:48;;;;;;;25.67;5.53;;;;;;;16.62;57.93;94468.63;5165577;27;20026;-87
2023/09/29 06:03:13;;;;;;;31.48;5.13;;;;;;;16.62;58.38;94474.78;5164859;27;20023;-87
2023/09/29 06:05:39;;;;;;;33.40;5.38;;;;;;;16.70;57.72;94475.00;5147246;27;20331;-87
2023/09/29 06:08:06;;;;;;;24.48;5.10;;;;;;;16.74;57.69;94468.59;5165326;27;20030;-88
2023/09/29 06:10:31;;;;;;;48.33;5.38;;;;;;;16.77;58.45;94469.84;5147001;27;20030;-88
2023/09/29 06:12:57;;;;;;;41.72;5.45;;;;;;;16.79;57.14;94486.44;5147182;27;20049;-88
2023/09/29 06:15:24;;;;;;;23.17;4.28;;;;;;;16.80;55.71;94479.94;5144257;27;20051;-87
2023/09/29 06:17:50;;;;;;;36.53;4.72;;;;;;;16.80;55.43;94474.56;5145069;28;20081;-91
2023/09/29 06:20:15;;;;;;;15.25;3.42;;;;;;;16.77;55.86;94469.84;5126561;28;20027;-91
2023/09/29 06:22:41;;;;;;;18.25;4.95;;;;;;;16.78;56.02;94468.72;5144674;28;20015;-90
2023/09/29 06:25:06;;;;;;;11.32;3.35;;;;;;;16.87;56.34;94476.72;5144581;27;20023;-88
2023/09/29 06:27:32;;;;;;;20.30;4.55;;;;;;;16.91;56.39;94472.22;5144610;27;20023;-91
2023/09/29 06:29:57;;;;;;;29.38;4.28;;;;;;;16.95;55.50;94465.03;5144166;27;20097;-91
2023/09/29 06:32:23;;;;;;;21.80;3.90;;;;;;;16.99;55.52;94477.47;5126299;28;20340;-92
2023/09/29 06:34:48;;;;;;;22.42;3.88;;;;;;;17.08;55.56;94468.53;5144494;27;20023;-91
2023/09/29 06:37:14;;;;;;;24.65;5.28;;;;;;;17.14;56.06;94465.25;5144421;27;20099;-90
2023/09/29 06:39:39;;;;;;;28.17;5.25;;;;;;;17.21;56.70;94468.13;5126693;28;20023;-90
2023/09/29 06:42:05;;;;;;;29.20;5.90;;;;;;;17.34;56.04;94468.91;5127246;28;20064;-90
2023/09/29 06:44:32;;;;;;;15.13;4.85;;;;;;;17.37;55.76;94467.44;5144540;27;20090;-90
2023/09/29 06:46:58;;;;;;;22.63;4.35;;;;;;;17.48;55.54;94473.13;5125879;28;20054;-90
2023/09/29 06:49:23;;;;;;;25.80;4.55;;;;;;;17.60;55.00;94473.88;5144486;28;20018;-90
2023/09/29 06:51:49;;;;;;;15.20;3.90;;;;;;;17.69;54.80;94465.66;5126026;27;20030;-90
2023/09/29 06:54:15;;;;;;;13.10;3.33;;;;;;;17.78;54.28;94466.28;5126095;28;20027;-81
2023/09/29 06:56:40;;;;;;;33.70;5.20;;;;;;;17.74;55.10;94465.41;5143778;28;20031;-85
2023/09/29 06:59:07;;;;;;;28.60;4.25;;;;;;;17.89;53.15;94469.31;5125076;28;20029;-81
2023/09/29 07:01:33;;;;;;;33.53;7.32;;;;;;;17.98;53.63;94469.16;5143570;27;20016;-82
2023/09/29 07:03:59;;;;;;;27.17;5.53;;;;;;;18.12;54.00;94471.44;5143546;28;20026;-82
2023/09/29 07:06:25;;;;;;;21.70;4.85;;;;;;;18.25;51.62;94476.41;5143616;27;20015;-82
2023/09/29 07:08:51;;;;;;;28.38;4.78;;;;;;;18.37;49.84;94472.06;5144105;28;20038;-87
2023/09/29 07:11:17;;;;;;;28.88;5.40;;;;;;;18.48;51.10;94467.75;5143267;27;20035;-84
2023/09/29 07:13:42;;;;;;;17.98;4.78;;;;;;;18.63;50.18;94475.03;5125531;27;20023;-90
2023/09/29 07:16:08;;;;;;;16.27;4.88;;;;;;;18.80;48.63;94473.13;5147140;27;20222;-87
2023/09/29 07:18:33;;;;;;;14.88;3.60;;;;;;;18.88;45.19;94477.56;5129686;27;20019;-91
2023/09/29 07:20:59;;;;;;;13.90;2.42;;;;;;;19.05;42.79;94484.53;5147888;27;20023;-90
2023/09/29 07:23:25;;;;;;;18.60;5.28;;;;;;;19.25;41.93;94482.63;5129604;27;20110;-84
2023/09/29 07:25:52;;;;;;;19.00;3.28;;;;;;;19.32;41.83;94477.41;5147635;27;20047;-87
2023/09/29 07:28:18;;;;;;;16.05;4.07;;;;;;;19.50;40.79;94471.56;5127622;27;20019;-86
2023/09/29 07:30:44;;;;;;;15.10;3.38;;;;;;;19.59;40.53;94482.97;5125523;27;20221;-86
2023/09/29 07:33:10;;;;;;;38.33;3.25;;;;;;;19.79;40.29;94467.56;5143509;27;20026;-86
2023/09/29 07:35:36;;;;;;;18.90;3.60;;;;;;;19.96;40.40;94483.34;5143404;27;20031;-85
2023/09/29 07:38:05;;;;;;;20.80;2.78;;;;;;;20.19;39.85;94479.91;5125267;27;20225;-86
2023/09/29 07:40:37;;;;;;;15.05;3.03;;;;;;;20.35;38.67;94485.22;5143640;27;20059;-86
2023/09/29 07:43:06;;;;;;;7.35;3.05;;;;;;;20.54;38.32;94484.41;5143724;27;20019;-87
2023/09/29 07:45:32;;;;;;;13.02;3.28;;;;;;;20.61;38.77;94487.25;5142477;27;20027;-86
2023/09/29 07:47:58;;;;;;;11.20;2.67;;;;;;;20.67;39.78;94493.94;5142619;27;20050;-86
2023/09/29 07:50:24;;;;;;;15.30;3.47;;;;;;;20.78;40.64;94488.69;5143122;27;20116;-86
2023/09/29 07:52:49;;;;;;;23.20;2.70;;;;;;;20.94;39.97;94488.53;5144074;27;20031;-86
2023/09/29 07:55:15;;;;;;;14.43;3.05;;;;;;;21.16;39.25;94481.53;5126610;27;20038;-86
2023/09/29 07:57:40;;;;;;;15.10;2.45;;;;;;;21.37;35.41;94487.25;5126681;27;20023;-86
2023/09/29 08:00:09;;;;;;;12.73;2.30;;;;;;;21.55;35.05;94489.44;5145902;27;20018;-86
2023/09/29 08:02:34;;;;;;;11.70;2.28;;;;;;;21.72;35.17;94486.19;5146275;27;20210;-86
2023/09/29 08:05:00;;;;;;;10.38;2.33;;;;;;;21.94;35.28;94483.72;5146319;27;20068;-86
2023/09/29 08:07:26;;;;;;;18.25;3.60;;;;;;;22.13;34.07;94483.56;5146529;27;20023;-85
2023/09/29 08:09:53;;;;;;;4.85;2.30;;;;;;;22.22;31.73;94478.59;5128197;27;20363;-86
2023/09/29 08:12:18;;;;;;;19.52;2.75;;;;;;;22.26;32.07;94483.31;5146037;27;20274;-86
2023/09/29 08:14:44;;;;;;;16.35;3.35;;;;;;;22.24;32.91;94484.47;5146254;27;20050;-86
2023/09/29 08:17:12;;;;;;;17.15;2.75;;;;;;;22.39;32.89;94487.34;5146245;27;20046;-86
2023/09/29 08:19:37;;;;;;;15.52;2.55;;;;;;;22.54;33.11;94482.81;5127812;27;20263;-86
2023/09/29 08:22:03;;;;;;;10.20;2.25;;;;;;;22.67;31.33;94484.09;5146136;27;20129;-86
2023/09/29 08:24:32;;;;;;;10.80;2.17;;;;;;;22.75;30.18;94482.22;5145956;27;20321;-86
2023/09/29 08:26:58;;;;;;;4.80;2.10;;;;;;;22.82;29.36;94476.84;5145884;27;20035;-87
2023/09/29 08:29:24;;;;;;;9.20;1.88;;;;;;;22.90;29.37;94474.97;5146370;27;20116;-86
2023/09/29 08:31:49;;;;;;;10.48;2.10;;;;;;;22.92;30.32;94492.47;5145990;27;20313;-87
2023/09/29 08:34:15;;;;;;;17.67;2.55;;;;;;;23.03;30.19;94484.41;5127510;27;20322;-86
2023/09/29 08:36:41;;;;;;;15.55;2.20;;;;;;;23.13;29.97;94477.50;5127709;27;20072;-86
2023/09/29 08:39:06;;;;;;;8.77;2.08;;;;;;;23.15;28.30;94472.47;5127426;27;20067;-86
2023/09/29 08:41:34;;;;;;;5.90;2.55;;;;;;;23.12;28.87;94473.22;5145724;27;20019;-86
2023/09/29 08:44:02;;;;;;;5.70;1.60;;;;;;;23.16;29.14;94472.09;5145781;27;20027;-86
2023/09/29 08:46:29;;;;;;;11.88;2.22;;;;;;;23.28;30.04;94473.69;5127488;27;20027;-86
2023/09/29 08:48:55;;;;;;;11.55;3.03;;;;;;;23.41;29.27;94480.41;5127223;27;20098;-86
2023/09/29 08:51:21;;;;;;;11.35;2.10;;;;;;;23.53;27.85;94475.78;5145752;27;20051;-86
2023/09/29 08:53:50;;;;;;;8.50;2.30;;;;;;;23.61;27.92;94474.66;5145648;27;20023;-87
2023/09/29 08:56:16;;;;;;;17.35;2.85;;;;;;;23.61;28.65;94471.94;5145437;27;20023;-86
2023/09/29 08:58:42;;;;;;;8.38;2.67;;;;;;;23.75;29.04;94476.66;5145369;27;20049;-87
2023/09/29 09:01:08;;;;;;;11.48;2.33;;;;;;;23.83;29.14;94475.56;5145439;27;20026;-86
2023/09/29 09:03:35;;;;;;;12.23;2.72;;;;;;;23.93;27.98;94479.50;5145248;27;20015;-86
2023/09/29 09:06:01;;;;;;;8.05;2.95;;;;;;;23.99;28.76;94477.97;5145265;27;20019;-86
2023/09/29 09:08:27;;;;;;;14.70;3.22;;;;;;;24.07;28.43;94478.78;5144928;27;20026;-86
2023/09/29 09:11:00;;;;;;;11.20;2.78;;;;;;;24.12;28.20;94476.47;5145023;27;20039;-86
2023/09/29 09:13:26;;;;;;;11.13;3.53;;;;;;;24.16;28.52;94479.97;5144780;27;20043;-86
2023/09/29 09:15:58;;;;;;;11.77;2.58;;;;;;;24.20;28.81;94483.50;5145089;27;20026;-86
2023/09/29 09:18:29;;;;;;;15.07;2.22;;;;;;;24.20;28.39;94479.97;5145156;27;20019;-86
2023/09/29 09:20:57;;;;;;;14.57;2.63;;;;;;;24.16;28.05;94482.69;5145107;27;20090;-86
2023/09/29 09:23:22;;;;;;;13.48;2.42;;;;;;;24.09;27.58;94485.38;5144970;27;20022;-86
2023/09/29 09:25:48;;;;;;;8.05;2.28;;;;;;;24.01;28.05;94484.56;5144736;27;20193;-86
2023/09/29 09:28:18;;;;;;;7.10;2.67;;;;;;;24.06;28.03;94483.44;5126369;27;20027;-86
2023/09/29 09:30:46;;;;;;;17.13;4.05;;;;;;;24.11;28.39;94476.84;5126577;27;20027;-86
2023/09/29 09:33:21;;;;;;;9.85;2.33;;;;;;;23.99;28.25;94476.00;5144784;27;20086;-86
2023/09/29 09:35:47;;;;;;;10.07;2.63;;;;;;;23.99;28.59;94477.97;5126258;27;20094;-85
2023/09/29 09:38:13;;;;;;;6.97;2.03;;;;;;;23.98;28.48;94481.88;5143876;27;20015;-86
2023/09/29 09:40:39;;;;;;;16.92;2.80;;;;;;;24.08;28.49;94475.69;5144491;27;20056;-86
2023/09/29 09:43:09;;;;;;;16.95;3.03;;;;;;;24.11;27.66;94477.63;5126161;27;20011;-86
2023/09/29 09:45:39;;;;;;;10.25;1.95;;;;;;;24.10;27.07;94467.91;5144370;27;20195;-86
2023/09/29 09:48:07;;;;;;;12.57;3.50;;;;;;;24.04;26.70;94472.16;5144472;27;20068;-86
2023/09/29 09:50:36;;;;;;;8.10;2.60;;;;;;;23.96;26.58;94473.31;5144440;27;20026;-86
2023/09/29 09:53:03;;;;;;;7.53;2.42;;;;;;;23.98;28.00;94469.03;5144156;27;20019;-86
2023/09/29 09:55:50;;;;;;;14.00;2.53;;;;;;;24.02;27.92;94477.97;5143973;27;20075;-86
2023/09/29 09:58:17;;;;;;;8.68;2.10;;;;;;;24.10;27.17;94470.63;5144478;27;20019;-86
2023/09/29 10:00:45;;;;;;;13.27;2.92;;;;;;;24.21;27.51;94467.91;5144078;27;20309;-86
2023/09/29 10:03:13;;;;;;;10.52;2.65;;;;;;;24.30;27.47;94471.06;5144141;27;20015;-85
2023/09/29 10:05:46;;;;;;;11.43;2.85;;;;;;;24.40;27.33;94467.59;5125800;27;20035;-86
2023/09/29 10:08:27;;;;;;;8.30;2.40;;;;;;;24.34;27.46;94468.31;5144192;27;20019;-86
2023/09/29 10:10:53;;;;;;;11.15;2.70;;;;;;;24.28;27.71;94467.16;5125786;27;20069;-87
2023/09/29 10:13:19;;;;;;;8.20;2.60;;;;;;;24.19;27.86;94462.84;5125478;28;20023;-86
2023/09/29 10:15:55;;;;;;;5.28;2.00;;;;;;;24.23;28.50;94466.38;5143945;27;20038;-86
2023/09/29 10:18:21;;;;;;;8.63;2.13;;;;;;;24.27;27.60;94460.16;5144197;27;20023;-86
2023/09/29 10:20:58;;;;;;;11.50;2.33;;;;;;;24.34;27.84;94457.44;5144050;28;20221;-85
2023/09/29 10:23:27;;;;;;;8.30;1.95;;;;;;;24.32;27.52;94452.38;5144193;28;20063;-86
2023/09/29 10:26:00;;;;;;;15.43;2.10;;;;;;;24.28;27.89;94458.97;5144021;28;20045;-86
2023/09/29 10:28:33;;;;;;;11.52;2.60;;;;;;;24.26;27.56;94448.47;5143930;28;20221;-86
2023/09/29 10:31:13;;;;;;;10.68;3.08;;;;;;;24.30;27.14;94448.47;5143974;28;20034;-86
2023/09/29 10:33:53;;;;;;;11.80;2.30;;;;;;;24.17;26.06;94448.84;5143865;27;20027;-86
2023/09/29 10:36:30;;;;;;;8.20;2.85;;;;;;;23.80;26.40;94439.00;5143852;27;20019;-86
2023/09/29 10:38:57;;;;;;;12.65;2.75;;;;;;;23.55;27.19;94438.91;5143715;27;20030;-85
2023/09/29 10:41:24;;;;;;;8.57;2.08;;;;;;;23.46;27.22;94438.44;5143986;27;20023;-86
2023/09/29 10:43:50;;;;;;;11.68;2.50;;;;;;;23.53;28.79;94445.84;5125500;28;20018;-86
2023/09/29 10:46:21;;;;;;;16.50;2.92;;;;;;;23.55;28.81;94428.00;5125545;28;20225;-86
2023/09/29 10:48:51;;;;;;;10.65;2.90;;;;;;;23.56;28.94;94426.06;5144684;27;20060;-86
2023/09/29 10:51:22;;;;;;;13.88;2.97;;;;;;;23.59;29.52;94428.00;5147755;27;20035;-86
2023/09/29 10:53:48;;;;;;;15.77;2.97;;;;;;;23.71;28.33;94422.25;5147709;27;20217;-84
2023/09/29 10:56:21;;;;;;;10.38;2.92;;;;;;;23.79;29.25;94429.31;5147960;27;20035;-86
2023/09/29 10:58:49;;;;;;;9.77;3.10;;;;;;;23.88;29.34;94418.03;5147813;27;20050;-86
2023/09/29 11:01:27;;;;;;;10.15;3.08;;;;;;;24.07;28.07;94435.97;5147373;27;20031;-86
2023/09/29 11:03:56;;;;;;;15.25;2.92;;;;;;;23.88;27.19;94422.72;5147801;27;20023;-86
2023/09/29 11:06:22;;;;;;;9.93;2.67;;;;;;;23.87;26.92;94416.47;5129477;27;20359;-86
2023/09/29 11:08:53;;;;;;;12.82;3.70;;;;;;;24.01;26.74;94410.28;5147550;27;20019;-86
2023/09/29 11:11:19;;;;;;;14.68;3.20;;;;;;;24.10;26.82;94416.16;5146944;27;20057;-86
2023/09/29 11:13:58;;;;;;;9.57;2.90;;;;;;;24.16;26.14;94417.34;5147465;27;20043;-85
2023/09/29 11:16:27;;;;;;;9.45;2.97;;;;;;;24.17;26.75;94416.16;5147322;27;20027;-85
2023/09/29 11:18:56;;;;;;;8.45;3.20;;;;;;;24.36;26.73;94406.06;5147474;27;20203;-86
2023/09/29 11:21:32;;;;;;;11.55;3.72;;;;;;;24.52;27.16;94398.31;5147270;27;20090;-86
2023/09/29 11:24:07;;;;;;;16.95;3.20;;;;;;;24.58;26.59;94388.59;5147170;27;20317;-85
2023/09/29 11:26:33;;;;;;;6.97;3.00;;;;;;;24.63;26.00;94401.06;5147085;27;20019;-85
2023/09/29 11:28:59;;;;;;;15.98;3.25;;;;;;;24.70;25.89;94394.81;5146912;27;20195;-84
2023/09/29 11:31:25;;;;;;;11.38;3.08;;;;;;;24.80;25.20;94388.59;5147034;27;21319;-84
2023/09/29 11:33:51;;;;;;;13.80;3.65;;;;;;;24.82;26.47;94386.25;5128650;27;20305;-85
2023/09/29 11:36:23;;;;;;;12.73;3.40;;;;;;;24.86;26.96;94392.47;5147071;27;20026;-85
2023/09/29 11:38:50;;;;;;;9.95;3.20;;;;;;;24.88;26.36;94387.41;5146886;27;20370;-85
2023/09/29 11:41:17;;;;;;;13.95;3.10;;;;;;;24.87;26.93;94376.88;5146636;27;20026;-85
2023/09/29 11:43:45;;;;;;;13.10;3.28;;;;;;;24.86;26.20;94376.13;5146935;27;20019;-85